createdAt,value
2019-02-11T00:01:50.043Z,9.78
2019-02-11T00:04:19.771Z,9.50
2019-02-11T00:06:49.570Z,10.58
2019-02-11T00:09:19.296Z,11.65
2019-02-11T00:11:48.991Z,10.32
2019-02-11T00:14:18.752Z,10.13
2019-02-11T00:16:48.452Z,8.68
2019-02-11T00:19:18.376Z,7.95
2019-02-11T00:21:49.112Z,10.53
2019-02-11T00:24:18.829Z,10.28
2019-02-11T00:26:48.598Z,8.23
2019-02-11T00:29:18.344Z,8.63
2019-02-11T00:31:48.013Z,6.85
2019-02-11T00:34:17.860Z,7.37
2019-02-11T00:36:47.630Z,7.92
2019-02-11T00:39:17.372Z,6.25
2019-02-11T00:41:47.204Z,8.40
2019-02-11T00:44:16.933Z,5.72
2019-02-11T00:46:46.607Z,5.60
2019-02-11T00:49:16.358Z,5.72
2019-02-11T00:51:46.141Z,6.28
2019-02-11T00:54:15.870Z,5.65
2019-02-11T00:56:45.768Z,5.62
2019-02-11T00:59:15.505Z,4.62
2019-02-11T01:01:45.324Z,4.87
2019-02-11T01:04:15.010Z,5.00
2019-02-11T01:06:44.733Z,5.80
2019-02-11T01:09:14.580Z,4.33
2019-02-11T01:11:44.304Z,4.22
2019-02-11T01:14:13.997Z,4.75
2019-02-11T01:16:43.758Z,5.67
2019-02-11T01:19:13.534Z,4.53
2019-02-11T01:21:43.375Z,5.20
2019-02-11T01:24:13.110Z,4.83
2019-02-11T01:26:43.184Z,4.35
2019-02-11T01:29:12.911Z,5.30
2019-02-11T01:31:42.659Z,5.30
2019-02-11T01:34:12.471Z,3.95
2019-02-11T01:36:42.403Z,3.50
2019-02-11T01:39:12.174Z,5.03
2019-02-11T01:41:41.969Z,4.30
2019-02-11T01:44:11.773Z,3.98
2019-02-11T01:46:41.612Z,4.37
2019-02-11T01:49:11.281Z,5.10
2019-02-11T01:51:41.023Z,3.47
2019-02-11T01:54:10.878Z,4.25
2019-02-11T01:56:40.584Z,3.22
2019-02-11T01:59:10.303Z,3.00
2019-02-11T02:01:40.114Z,3.42
2019-02-11T02:04:09.952Z,2.85
2019-02-11T02:06:39.666Z,3.15
2019-02-11T02:09:09.650Z,2.40
2019-02-11T02:11:39.387Z,2.85
2019-02-11T02:14:09.074Z,2.90
2019-02-11T02:16:39.007Z,3.15
2019-02-11T02:19:08.829Z,2.52
2019-02-11T02:21:38.569Z,2.85
2019-02-11T02:24:08.409Z,3.50
2019-02-11T02:26:38.115Z,2.30
2019-02-11T02:29:07.871Z,2.27
2019-02-11T02:31:37.792Z,2.42
2019-02-11T02:34:07.486Z,2.22
2019-02-11T02:36:37.255Z,2.50
2019-02-11T02:39:07.410Z,2.17
2019-02-11T02:41:37.175Z,2.45
2019-02-11T02:44:06.908Z,1.72
2019-02-11T02:46:36.683Z,2.72
2019-02-11T02:49:06.378Z,2.15
2019-02-11T02:51:36.111Z,2.02
2019-02-11T02:54:05.891Z,2.02
2019-02-11T02:56:35.600Z,2.10
2019-02-11T02:59:05.288Z,2.20
2019-02-11T03:01:35.027Z,2.20
2019-02-11T03:04:04.842Z,2.00
2019-02-11T03:06:34.586Z,1.70
2019-02-11T03:09:04.920Z,1.82
2019-02-11T03:11:34.859Z,1.20
2019-02-11T03:14:06.158Z,1.20
2019-02-11T03:16:36.006Z,1.30
2019-02-11T03:19:05.874Z,1.25
2019-02-11T03:21:35.607Z,1.27
2019-02-11T03:24:05.316Z,1.12
2019-02-11T03:26:35.032Z,1.40
2019-02-11T03:29:04.875Z,1.30
2019-02-11T03:31:34.601Z,0.95
2019-02-11T03:34:04.401Z,1.30
2019-02-11T03:36:34.153Z,1.25
2019-02-11T03:39:04.935Z,1.00
2019-02-11T03:41:34.968Z,0.70
2019-02-11T03:44:04.889Z,1.10
2019-02-11T03:46:34.593Z,1.05
2019-02-11T03:49:04.270Z,0.88
2019-02-11T03:51:34.089Z,1.07
2019-02-11T03:54:03.769Z,0.75
2019-02-11T03:56:33.507Z,0.98
2019-02-11T03:59:03.208Z,1.37
2019-02-11T04:01:32.973Z,1.00
2019-02-11T04:04:02.844Z,1.35
2019-02-11T04:06:32.567Z,1.02
2019-02-11T04:09:02.406Z,0.90
2019-02-11T04:11:32.148Z,1.00
2019-02-11T04:14:01.959Z,1.10
2019-02-11T04:16:31.689Z,0.90
2019-02-11T04:19:01.427Z,1.10
2019-02-11T04:21:31.168Z,0.70
2019-02-11T04:24:00.844Z,0.75
2019-02-11T04:26:33.300Z,0.90
2019-02-11T04:29:02.969Z,1.20
2019-02-11T04:31:32.751Z,0.90
2019-02-11T04:34:02.467Z,1.20
2019-02-11T04:36:32.188Z,1.20
2019-02-11T04:39:02.086Z,1.32
2019-02-11T04:41:31.827Z,1.07
2019-02-11T04:44:01.592Z,1.40
2019-02-11T04:46:31.273Z,1.12
2019-02-11T04:49:00.964Z,1.25
2019-02-11T04:51:30.739Z,2.65
2019-02-11T04:54:00.587Z,0.98
2019-02-11T04:56:30.543Z,1.50
2019-02-11T04:59:00.229Z,2.10
2019-02-11T05:01:29.991Z,1.35
2019-02-11T05:03:59.679Z,0.90
2019-02-11T05:06:29.445Z,1.07
2019-02-11T05:08:59.363Z,0.80
2019-02-11T05:11:29.036Z,0.98
2019-02-11T05:13:58.781Z,0.90
2019-02-11T05:16:28.624Z,0.80
2019-02-11T05:18:58.338Z,1.07
2019-02-11T05:21:28.165Z,1.30
2019-02-11T05:23:58.050Z,1.20
2019-02-11T05:26:27.751Z,0.85
2019-02-11T05:28:57.469Z,1.50
2019-02-11T05:31:27.694Z,0.90
2019-02-11T05:33:57.445Z,1.10
2019-02-11T05:36:27.136Z,0.95
2019-02-11T05:38:57.123Z,1.55
2019-02-11T05:41:26.795Z,1.30
2019-02-11T05:43:56.539Z,2.35
2019-02-11T05:46:26.477Z,2.00
2019-02-11T05:48:56.200Z,2.35
2019-02-11T05:51:25.903Z,1.50
2019-02-11T05:53:55.742Z,1.40
2019-02-11T05:56:25.551Z,1.15
2019-02-11T05:58:55.305Z,1.45
2019-02-11T06:01:25.165Z,1.02
2019-02-11T06:03:57.036Z,1.67
2019-02-11T06:06:26.714Z,1.47
2019-02-11T06:08:56.470Z,1.45
2019-02-11T06:11:26.163Z,2.27
2019-02-11T06:13:56.051Z,1.25
2019-02-11T06:16:25.805Z,5.45
2019-02-11T06:18:55.603Z,2.42
2019-02-11T06:21:25.332Z,1.52
2019-02-11T06:23:55.073Z,0.78
2019-02-11T06:26:24.814Z,0.82
2019-02-11T06:28:54.683Z,0.88
2019-02-11T06:31:24.393Z,0.70
2019-02-11T06:33:55.671Z,0.90
2019-02-11T06:36:25.402Z,0.70
2019-02-11T06:38:55.269Z,1.20
2019-02-11T06:41:24.966Z,1.05
2019-02-11T06:43:54.801Z,0.60
2019-02-11T06:46:26.648Z,0.65
2019-02-11T06:48:56.416Z,0.47
2019-02-11T06:51:26.087Z,0.70
2019-02-11T06:53:55.837Z,1.17
2019-02-11T06:56:25.559Z,0.80
2019-02-11T06:58:55.279Z,0.80
2019-02-11T07:01:24.971Z,1.00
2019-02-11T07:03:54.728Z,0.85
2019-02-11T07:06:24.416Z,0.85
2019-02-11T07:08:54.172Z,0.90
2019-02-11T07:11:23.857Z,1.30
2019-02-11T07:13:53.589Z,1.00
2019-02-11T07:16:23.329Z,0.85
2019-02-11T07:18:53.078Z,0.80
2019-02-11T07:21:22.767Z,0.70
2019-02-11T07:23:52.568Z,0.78
2019-02-11T07:26:22.520Z,0.90
2019-02-11T07:28:52.219Z,0.70
2019-02-11T07:31:21.974Z,1.40
2019-02-11T07:33:51.676Z,1.32
2019-02-11T07:36:21.456Z,1.10
2019-02-11T07:38:51.373Z,1.00
2019-02-11T07:41:26.159Z,1.00
2019-02-11T07:44:00.876Z,0.95
2019-02-11T07:46:58.851Z,1.47
2019-02-11T07:49:28.574Z,1.20
2019-02-11T07:51:58.277Z,0.95
2019-02-11T07:54:28.023Z,1.10
2019-02-11T07:56:57.739Z,1.35
2019-02-11T07:59:27.472Z,1.70
2019-02-11T08:01:57.176Z,1.45
2019-02-11T08:04:27.002Z,2.10
2019-02-11T08:06:56.707Z,1.42
2019-02-11T08:09:26.470Z,1.50
2019-02-11T08:11:56.222Z,2.22
2019-02-11T08:14:26.000Z,2.42
2019-02-11T08:16:55.739Z,2.10
2019-02-11T08:19:25.491Z,2.65
2019-02-11T08:21:55.185Z,2.50
2019-02-11T08:24:24.939Z,2.95
2019-02-11T08:26:54.750Z,2.72
2019-02-11T08:29:24.482Z,3.20
2019-02-11T08:31:54.218Z,3.17
2019-02-11T08:34:23.983Z,3.50
2019-02-11T08:36:56.248Z,3.83
2019-02-11T08:39:28.884Z,3.08
2019-02-11T08:41:58.745Z,4.58
2019-02-11T08:44:28.526Z,3.12
2019-02-11T08:46:58.267Z,4.15
2019-02-11T08:49:28.025Z,3.52
2019-02-11T08:51:57.763Z,4.08
2019-02-11T08:54:27.532Z,4.33
2019-02-11T08:56:57.520Z,3.27
2019-02-11T08:59:27.357Z,2.65
2019-02-11T09:01:57.068Z,3.37
2019-02-11T09:04:28.328Z,2.70
2019-02-11T09:06:58.063Z,3.00
2019-02-11T09:09:27.799Z,3.08
2019-02-11T09:11:57.513Z,3.80
2019-02-11T09:14:27.255Z,2.80
2019-02-11T09:16:57.012Z,3.98
2019-02-11T09:19:26.698Z,3.90
2019-02-11T09:21:56.516Z,3.30
2019-02-11T09:24:26.222Z,3.83
2019-02-11T09:26:55.931Z,3.95
2019-02-11T09:29:25.732Z,4.35
2019-02-11T09:31:55.472Z,4.67
2019-02-11T09:34:25.153Z,5.17
2019-02-11T09:36:55.048Z,4.50
2019-02-11T09:39:24.764Z,4.62
2019-02-11T09:41:54.486Z,5.00
2019-02-11T09:44:29.764Z,5.40
2019-02-11T09:46:56.571Z,3.08
2019-02-11T09:49:26.321Z,4.55
2019-02-11T09:51:56.195Z,5.53
2019-02-11T09:54:25.931Z,5.17
2019-02-11T09:56:55.760Z,4.25
2019-02-11T09:59:25.486Z,4.62
2019-02-11T10:01:57.148Z,4.03
2019-02-11T10:04:26.866Z,4.85
2019-02-11T10:06:56.676Z,4.85
2019-02-11T10:09:26.397Z,4.72
2019-02-11T10:11:56.142Z,5.58
2019-02-11T10:14:25.915Z,3.40
2019-02-11T10:16:55.707Z,3.80
2019-02-11T10:19:25.427Z,2.92
2019-02-11T10:21:58.195Z,3.85
2019-02-11T10:24:28.011Z,4.10
2019-02-11T10:26:57.740Z,4.22
2019-02-11T10:29:27.480Z,4.10
2019-02-11T10:31:57.311Z,3.52
2019-02-11T10:34:27.052Z,3.05
2019-02-11T10:36:56.860Z,3.45
2019-02-11T10:39:26.614Z,3.83
2019-02-11T10:41:56.440Z,4.85
2019-02-11T10:44:26.183Z,3.90
2019-02-11T10:46:55.948Z,3.33
2019-02-11T10:49:25.725Z,3.35
2019-02-11T10:51:55.491Z,4.08
2019-02-11T10:54:25.229Z,3.30
2019-02-11T10:56:54.974Z,3.40
2019-02-11T10:59:24.783Z,3.10
2019-02-11T11:01:54.524Z,3.15
2019-02-11T11:04:24.239Z,2.65
2019-02-11T11:06:54.004Z,3.27
2019-02-11T11:09:23.968Z,3.17
2019-02-11T11:11:53.700Z,2.90
2019-02-11T11:14:23.439Z,2.62
2019-02-11T11:16:53.202Z,3.22
2019-02-11T11:19:22.938Z,2.65
2019-02-11T11:21:52.692Z,3.77
2019-02-11T11:24:22.569Z,3.17
2019-02-11T11:26:52.324Z,2.80
2019-02-11T11:29:22.031Z,3.55
2019-02-11T11:31:51.832Z,3.45
2019-02-11T11:34:21.596Z,2.77
2019-02-11T11:36:51.666Z,3.40
2019-02-11T11:39:25.338Z,3.30
2019-02-11T11:41:54.926Z,2.60
2019-02-11T11:44:24.602Z,2.12
2019-02-11T11:46:55.969Z,2.25
2019-02-11T11:49:25.756Z,2.17
2019-02-11T11:51:55.539Z,1.95
2019-02-11T11:54:25.272Z,1.80
2019-02-11T11:56:55.141Z,2.65
2019-02-11T11:59:24.841Z,1.98
2019-02-11T12:01:54.587Z,3.25
2019-02-11T12:04:24.291Z,2.37
2019-02-11T12:06:54.076Z,2.47
2019-02-11T12:09:23.912Z,3.30
2019-02-11T12:11:53.617Z,2.70
2019-02-11T12:14:23.363Z,2.98
2019-02-11T12:16:59.406Z,2.40
2019-02-11T12:19:24.684Z,2.60
2019-02-11T12:21:54.461Z,3.27
2019-02-11T12:24:24.221Z,2.30
2019-02-11T12:26:54.029Z,2.45
2019-02-11T12:29:23.809Z,2.30
2019-02-11T12:31:53.519Z,2.52
2019-02-11T12:34:23.455Z,2.40
2019-02-11T12:36:54.732Z,2.95
2019-02-11T12:39:24.518Z,2.00
2019-02-11T12:41:54.276Z,2.22
2019-02-11T12:44:26.334Z,2.52
2019-02-11T12:47:12.821Z,2.30
2019-02-11T12:49:27.591Z,2.95
2019-02-11T12:51:57.330Z,2.40
2019-02-11T12:54:27.071Z,2.83
2019-02-11T12:56:57.105Z,2.27
2019-02-11T12:59:26.887Z,2.52
2019-02-11T13:01:56.598Z,2.10
2019-02-11T13:04:26.332Z,2.20
2019-02-11T13:06:56.124Z,2.67
2019-02-11T13:09:25.948Z,2.95
2019-02-11T13:11:55.651Z,2.05
2019-02-11T13:14:25.584Z,1.60
2019-02-11T13:16:55.447Z,2.98
2019-02-11T13:19:25.223Z,2.15
2019-02-11T13:21:55.178Z,1.80
2019-02-11T13:24:24.879Z,2.00
2019-02-11T13:26:54.685Z,2.22
2019-02-11T13:29:24.425Z,2.10
2019-02-11T13:31:54.518Z,2.50
2019-02-11T13:34:24.235Z,2.27
2019-02-11T13:36:53.993Z,2.20
2019-02-11T13:39:23.907Z,1.90
2019-02-11T13:41:53.634Z,2.27
2019-02-11T13:44:23.522Z,1.80
2019-02-11T13:46:53.247Z,2.00
2019-02-11T13:49:23.023Z,2.20
2019-02-11T13:51:52.903Z,1.80
2019-02-11T13:54:22.779Z,2.20
2019-02-11T13:56:53.722Z,1.82
2019-02-11T13:59:26.302Z,2.98
2019-02-11T14:01:56.062Z,1.90
2019-02-11T14:04:28.296Z,2.10
2019-02-11T14:06:57.358Z,2.20
2019-02-11T14:09:27.110Z,2.77
2019-02-11T14:11:58.104Z,2.22
2019-02-11T14:14:31.208Z,2.98
2019-02-11T14:17:00.915Z,3.17
2019-02-11T14:19:30.706Z,2.12
2019-02-11T14:22:00.444Z,2.20
2019-02-11T14:24:30.645Z,2.47
2019-02-11T14:27:00.401Z,2.17
2019-02-11T14:29:30.344Z,2.00
2019-02-11T14:32:00.179Z,2.30
2019-02-11T14:34:29.889Z,2.50
2019-02-11T14:37:02.626Z,2.27
2019-02-11T14:39:32.418Z,2.75
2019-02-11T14:42:02.311Z,3.10
2019-02-11T14:44:32.016Z,3.85
2019-02-11T14:47:01.753Z,3.65
2019-02-11T14:49:31.590Z,3.30
2019-02-11T14:52:01.308Z,2.50
2019-02-11T14:54:31.223Z,2.85
2019-02-11T14:57:01.054Z,3.22
2019-02-11T14:59:32.720Z,3.80
2019-02-11T15:02:02.584Z,2.10
2019-02-11T15:04:32.371Z,4.25
2019-02-11T15:07:02.162Z,3.08
2019-02-11T15:09:31.928Z,2.67
2019-02-11T15:12:01.655Z,2.80
2019-02-11T15:14:31.528Z,2.55
2019-02-11T15:17:01.440Z,3.98
2019-02-11T15:19:31.152Z,3.92
2019-02-11T15:22:00.977Z,3.45
2019-02-11T15:24:31.013Z,2.62
2019-02-11T15:27:00.776Z,3.50
2019-02-11T15:29:30.546Z,4.08
2019-02-11T15:32:00.303Z,3.70
2019-02-11T15:34:30.038Z,3.15
2019-02-11T15:36:59.756Z,3.95
2019-02-11T15:39:29.564Z,3.00
2019-02-11T15:41:59.303Z,3.25
2019-02-11T15:44:29.106Z,2.60
2019-02-11T15:46:58.852Z,3.40
2019-02-11T15:49:28.595Z,5.33
2019-02-11T15:51:58.309Z,4.28
2019-02-11T15:54:27.995Z,5.90
2019-02-11T15:56:57.885Z,4.67
2019-02-11T15:59:27.580Z,5.17
2019-02-11T16:01:57.351Z,4.83
2019-02-11T16:04:27.085Z,4.25
2019-02-11T16:06:57.017Z,4.90
2019-02-11T16:09:26.764Z,6.55
2019-02-11T16:11:56.616Z,4.80
2019-02-11T16:14:26.364Z,4.53
2019-02-11T16:16:56.149Z,4.65
2019-02-11T16:19:25.942Z,3.98
2019-02-11T16:21:55.749Z,3.85
2019-02-11T16:24:25.612Z,3.35
2019-02-11T16:26:55.311Z,3.70
2019-02-11T16:29:25.091Z,4.30
2019-02-11T16:32:00.577Z,3.85
2019-02-11T16:34:26.673Z,3.60
2019-02-11T16:36:56.351Z,4.92
2019-02-11T16:39:26.119Z,4.22
2019-02-11T16:41:55.931Z,2.80
2019-02-11T16:44:25.717Z,4.35
2019-02-11T16:46:55.558Z,3.25
2019-02-11T16:49:25.316Z,3.75
2019-02-11T16:51:55.135Z,5.50
2019-02-11T16:54:24.821Z,4.97
2019-02-11T16:56:54.581Z,4.45
2019-02-11T16:59:24.259Z,3.55
2019-02-11T17:01:54.067Z,4.80
2019-02-11T17:04:23.781Z,3.85
2019-02-11T17:06:53.511Z,3.72
2019-02-11T17:09:23.219Z,3.60
2019-02-11T17:11:54.071Z,3.50
2019-02-11T17:14:23.806Z,3.52
2019-02-11T17:16:53.532Z,4.03
2019-02-11T17:19:23.276Z,3.22
2019-02-11T17:21:53.094Z,4.20
2019-02-11T17:24:22.809Z,2.58
2019-02-11T17:26:52.631Z,2.90
2019-02-11T17:29:22.428Z,4.20
2019-02-11T17:31:52.143Z,3.42
2019-02-11T17:34:21.857Z,4.10
2019-02-11T17:36:51.872Z,3.95
2019-02-11T17:39:21.682Z,3.98
2019-02-11T17:41:51.475Z,3.50
2019-02-11T17:44:21.210Z,4.83
2019-02-11T17:46:51.140Z,4.42
2019-02-11T17:49:20.888Z,4.30
2019-02-11T17:51:50.650Z,3.33
2019-02-11T17:54:20.379Z,3.50
2019-02-11T17:56:50.252Z,4.20
2019-02-11T17:59:20.008Z,3.65
2019-02-11T18:01:50.072Z,3.80
2019-02-11T18:04:19.861Z,4.65
2019-02-11T18:06:49.676Z,3.27
2019-02-11T18:09:19.367Z,4.37
2019-02-11T18:11:49.148Z,4.00
2019-02-11T18:14:18.827Z,4.50
2019-02-11T18:16:48.560Z,4.17
2019-02-11T18:19:25.805Z,4.08
2019-02-11T18:21:49.746Z,3.10
2019-02-11T18:24:19.497Z,3.08
2019-02-11T18:26:49.296Z,4.05
2019-02-11T18:29:19.066Z,4.50
2019-02-11T18:31:48.947Z,3.02
2019-02-11T18:34:18.755Z,5.28
2019-02-11T18:36:48.552Z,3.72
2019-02-11T18:39:18.328Z,4.83
2019-02-11T18:41:48.108Z,3.30
2019-02-11T18:44:17.940Z,3.33
2019-02-11T18:46:47.726Z,4.00
2019-02-11T18:49:17.563Z,2.77
2019-02-11T18:51:47.346Z,3.80
2019-02-11T18:54:18.597Z,3.20
2019-02-11T18:56:48.503Z,3.50
2019-02-11T18:59:24.467Z,2.92
2019-02-11T19:01:50.426Z,2.77
2019-02-11T19:04:20.151Z,2.58
2019-02-11T19:06:49.946Z,5.22
2019-02-11T19:09:21.111Z,3.27
2019-02-11T19:11:51.015Z,4.00
2019-02-11T19:14:20.730Z,3.95
2019-02-11T19:16:50.552Z,3.10
2019-02-11T19:19:20.375Z,3.55
2019-02-11T19:21:50.114Z,3.25
2019-02-11T19:24:19.854Z,4.15
2019-02-11T19:26:49.636Z,3.60
2019-02-11T19:29:19.436Z,3.55
2019-02-11T19:31:49.143Z,4.50
2019-02-11T19:34:21.923Z,3.80
2019-02-11T19:37:02.935Z,4.40
2019-02-11T19:39:32.784Z,5.20
2019-02-11T19:42:02.523Z,4.00
2019-02-11T19:44:32.440Z,4.60
2019-02-11T19:47:02.300Z,4.05
2019-02-11T19:49:32.172Z,4.65
2019-02-11T19:52:01.979Z,4.20
2019-02-11T19:54:31.722Z,4.30
2019-02-11T19:57:01.568Z,3.67
2019-02-11T19:59:31.796Z,3.25
2019-02-11T20:02:04.339Z,3.15
2019-02-11T20:04:34.135Z,3.90
2019-02-11T20:07:03.988Z,3.80
2019-02-11T20:09:33.940Z,4.50
2019-02-11T20:12:06.884Z,3.80
2019-02-11T20:14:36.742Z,4.92
2019-02-11T20:17:06.556Z,3.85
2019-02-11T20:19:36.332Z,4.08
2019-02-11T20:22:06.156Z,3.60
2019-02-11T20:24:35.986Z,3.98
2019-02-11T20:27:05.779Z,3.75
2019-02-11T20:29:37.180Z,3.22
2019-02-11T20:32:07.110Z,3.37
2019-02-11T20:34:36.931Z,2.35
2019-02-11T20:37:06.701Z,2.87
2019-02-11T20:39:36.695Z,3.17
2019-02-11T20:42:06.666Z,3.10
2019-02-11T20:44:36.720Z,2.70
2019-02-11T20:47:06.708Z,4.25
2019-02-11T20:49:36.538Z,4.22
2019-02-11T20:52:06.419Z,3.35
2019-02-11T20:54:36.212Z,4.62
2019-02-11T20:57:06.522Z,4.65
2019-02-11T20:59:36.556Z,4.17
2019-02-11T21:02:06.835Z,5.70
2019-02-11T21:04:36.885Z,4.80
2019-02-11T21:07:08.584Z,4.33
2019-02-11T21:09:38.419Z,5.83
2019-02-11T21:12:10.030Z,5.28
2019-02-11T21:14:39.796Z,5.20
2019-02-11T21:17:09.606Z,5.87
2019-02-11T21:19:39.655Z,7.00
2019-02-11T21:22:09.630Z,5.08
2019-02-11T21:24:39.432Z,5.08
2019-02-11T21:27:11.448Z,6.40
2019-02-11T21:29:42.799Z,5.55
2019-02-11T21:32:14.802Z,5.78
2019-02-11T21:34:44.520Z,5.10
2019-02-11T21:37:14.226Z,5.08
2019-02-11T21:39:44.724Z,5.20
2019-02-11T21:42:14.825Z,3.15
2019-02-11T21:44:45.202Z,3.33
2019-02-11T21:47:14.959Z,4.37
2019-02-11T21:49:44.694Z,3.15
2019-02-11T21:52:14.575Z,2.20
2019-02-11T21:54:45.371Z,2.40
2019-02-11T21:57:17.910Z,2.20
2019-02-11T21:59:47.768Z,2.37
2019-02-11T22:02:17.476Z,2.33
2019-02-11T22:04:47.616Z,1.70
2019-02-11T22:07:17.714Z,2.27
2019-02-11T22:09:47.506Z,2.00
2019-02-11T22:12:17.262Z,1.40
2019-02-11T22:14:47.125Z,1.70
2019-02-11T22:17:16.947Z,1.50
2019-02-11T22:19:46.804Z,1.80
2019-02-11T22:22:16.534Z,1.75
2019-02-11T22:24:46.286Z,2.08
2019-02-11T22:27:15.985Z,1.50
2019-02-11T22:29:45.740Z,2.00
2019-02-11T22:32:17.813Z,1.60
2019-02-11T22:34:47.549Z,2.27
2019-02-11T22:37:17.226Z,1.65
2019-02-11T22:39:47.009Z,1.35
2019-02-11T22:42:16.702Z,1.37
2019-02-11T22:44:46.479Z,1.25
2019-02-11T22:47:16.173Z,1.75
2019-02-11T22:49:45.913Z,1.20
2019-02-11T22:52:15.739Z,1.25
2019-02-11T22:54:45.529Z,1.30
2019-02-11T22:57:15.239Z,1.55
2019-02-11T22:59:45.016Z,1.32
2019-02-11T23:02:14.718Z,2.00
2019-02-11T23:04:44.435Z,1.17
2019-02-11T23:07:14.130Z,1.65
2019-02-11T23:09:43.844Z,1.40
2019-02-11T23:12:13.578Z,1.75
2019-02-11T23:14:43.362Z,2.33
2019-02-11T23:17:13.148Z,1.60
2019-02-11T23:19:42.892Z,1.60
2019-02-11T23:22:12.571Z,1.37
2019-02-11T23:24:42.301Z,1.80
2019-02-11T23:27:11.988Z,1.32
2019-02-11T23:29:41.890Z,1.37
2019-02-11T23:32:11.608Z,1.42
2019-02-11T23:34:41.364Z,1.50
2019-02-11T23:37:11.060Z,2.45
2019-02-11T23:39:40.810Z,1.45
2019-02-11T23:42:10.554Z,1.70
2019-02-11T23:44:40.287Z,1.57
2019-02-11T23:47:10.001Z,1.52
2019-02-11T23:49:39.748Z,1.35
2019-02-11T23:52:09.614Z,1.70
2019-02-11T23:54:39.347Z,1.35
2019-02-11T23:57:09.039Z,1.70
2019-02-11T23:59:38.768Z,1.70
